Time;durP1;ratioP1;P1;durP2;ratioP2;P2;SDS_P1;SDS_P2;PMS_P1;PMS_P2;Temp;Humidity;BMP_temperature;BMP_pressure;BME280_temperature;BME280_humidity;BME280_pressure;Samples;Min_cycle;Max_cycle;Signal;HPM_P1;HPM_P2
2022/06/03 00:01:25;;;;;;;4.72;2.40;;;;;;;18.28;61.34;96630.97;10449859;28;20064;-23
2022/06/03 00:06:29;;;;;;;;;;;;;;;18.22;60.72;96626.75;10413772;28;20045;-23
2022/06/03 00:12:07;;;;;;;2.63;2.42;;;;;;;18.21;61.28;96629.28;10408059;28;19936;-23
2022/06/03 00:17:34;;;;;;;2.78;2.47;;;;;;;18.22;61.07;96648.72;10416779;28;20049;-23
2022/06/03 00:22:55;;;;;;;2.63;2.23;;;;;;;18.22;60.30;96648.72;10447434;28;20446;-23
2022/06/03 00:28:05;;;;;;;3.75;2.60;;;;;;;18.09;61.13;96639.44;10429562;28;20159;-23
2022/06/03 00:33:12;;;;;;;4.13;2.60;;;;;;;18.13;61.21;96636.91;10430630;28;20033;-25
2022/06/03 00:38:31;;;;;;;2.50;2.30;;;;;;;18.21;61.17;96630.16;10416033;28;20094;-23
2022/06/03 00:43:51;;;;;;;3.05;2.50;;;;;;;18.18;60.80;96645.31;10415119;28;20442;-23
2022/06/03 00:48:58;;;;;;;3.80;2.63;;;;;;;18.08;60.86;96655.47;10415444;28;20499;-23
2022/06/03 00:54:13;;;;;;;3.83;2.28;;;;;;;18.06;61.10;96665.59;10482810;28;20024;-24
2022/06/03 00:59:38;;;;;;;4.32;2.50;;;;;;;18.04;61.28;96661.38;10420410;28;20065;-24
2022/06/03 01:04:47;;;;;;;3.30;2.83;;;;;;;17.94;61.39;96635.22;10414232;28;20522;-23
2022/06/03 01:10:21;;;;;;;3.50;2.25;;;;;;;18.11;61.07;96650.41;10415302;28;20037;-24
2022/06/03 01:15:37;;;;;;;2.92;2.63;;;;;;;18.02;60.95;96652.94;10455480;28;20025;-23
2022/06/03 01:20:42;;;;;;;3.28;2.60;;;;;;;18.13;61.35;96643.66;10437703;28;20045;-24
2022/06/03 01:26:02;;;;;;;4.53;2.60;;;;;;;18.21;61.38;96652.09;10421205;28;20411;-24
2022/06/03 01:31:30;;;;;;;4.70;2.65;;;;;;;18.26;61.28;96652.94;10454876;28;20040;-25
2022/06/03 01:36:49;;;;;;;3.58;2.60;;;;;;;18.23;60.47;96652.94;10412727;28;20039;-23
2022/06/03 01:42:14;;;;;;;3.05;2.40;;;;;;;18.18;60.45;96649.56;10412847;28;20029;-23
2022/06/03 01:48:02;;;;;;;4.03;2.35;;;;;;;18.13;61.35;96626.78;10413122;28;20381;-24
2022/06/03 01:53:21;;;;;;;5.13;2.35;;;;;;;18.17;60.65;96620.00;10469651;28;20041;-22
2022/06/03 01:58:30;;;;;;;2.35;2.08;;;;;;;18.14;60.64;96600.59;10432391;28;20465;-23
2022/06/03 02:03:52;;;;;;;3.22;2.08;;;;;;;18.07;60.56;96596.34;10412345;28;20025;-23
2022/06/03 02:09:09;;;;;;;3.63;2.25;;;;;;;18.11;60.64;96604.81;10411759;28;20146;-22
2022/06/03 02:14:24;;;;;;;2.57;2.37;;;;;;;18.15;60.96;96602.28;10411443;28;20043;-23
2022/06/03 02:19:52;;;;;;;4.93;2.38;;;;;;;18.16;60.26;96609.03;10411495;28;20276;-23
2022/06/03 02:25:21;;;;;;;2.97;2.25;;;;;;;18.10;60.37;96603.13;10412654;28;20029;-23
2022/06/03 02:31:00;;;;;;;2.40;2.17;;;;;;;18.11;61.29;96614.94;10452417;28;20105;-24
2022/06/03 02:36:46;;;;;;;3.65;2.70;;;;;;;18.08;61.30;96627.63;10427991;28;20034;-23
2022/06/03 02:42:27;;;;;;;4.13;2.35;;;;;;;18.01;61.26;96610.72;10411415;28;20029;-23
2022/06/03 02:48:09;;;;;;;2.70;2.13;;;;;;;17.99;61.19;96620.03;10410376;28;20041;-23
2022/06/03 02:53:41;;;;;;;2.83;2.53;;;;;;;18.00;61.42;96609.03;10464863;28;20476;-22
2022/06/03 02:59:06;;;;;;;2.30;2.03;;;;;;;18.08;61.20;96587.91;10457995;28;20037;-23
2022/06/03 03:04:19;;;;;;;2.42;2.22;;;;;;;18.16;61.42;96590.47;10451352;28;20036;-23
2022/06/03 03:09:38;;;;;;;2.10;1.90;;;;;;;18.13;61.19;96575.25;10450968;28;20106;-22
2022/06/03 03:15:12;;;;;;;3.55;2.20;;;;;;;18.12;60.67;96583.69;10450637;28;20120;-23
2022/06/03 03:20:22;;;;;;;2.75;2.42;;;;;;;18.07;61.07;96575.28;10425321;28;20037;-23
2022/06/03 03:25:48;;;;;;;2.97;1.98;;;;;;;18.03;60.87;96569.34;10409613;28;20042;-24
2022/06/03 03:31:10;;;;;;;3.08;2.50;;;;;;;18.02;61.35;96566.81;10409107;28;20093;-23
2022/06/03 03:36:23;;;;;;;3.22;2.25;;;;;;;17.98;61.52;96585.41;10423090;28;20036;-23
2022/06/03 03:41:23;;;;;;;4.13;2.50;;;;;;;17.96;61.47;96580.34;10447058;28;20052;-23
2022/06/03 03:46:55;;;;;;;3.95;2.28;;;;;;;17.93;61.58;96579.47;10448792;28;20483;-24
2022/06/03 03:52:33;;;;;;;2.25;1.95;;;;;;;18.10;61.66;96587.91;10448516;28;20029;-24
2022/06/03 03:57:39;;;;;;;1.83;1.70;;;;;;;18.17;61.51;96592.16;10424751;28;20116;-24
2022/06/03 04:02:54;;;;;;;3.13;2.17;;;;;;;18.15;61.61;96588.78;10443060;28;20041;-23
2022/06/03 04:08:32;;;;;;;2.40;2.00;;;;;;;18.18;60.97;96583.69;10413064;28;20050;-25
2022/06/03 04:14:14;;;;;;;1.55;1.45;;;;;;;18.08;60.49;96592.16;10438933;28;20134;-24
2022/06/03 04:19:14;;;;;;;4.47;2.28;;;;;;;18.03;60.99;96586.22;10439433;28;20034;-24
2022/06/03 04:24:54;;;;;;;3.63;2.67;;;;;;;18.01;60.64;96591.28;10408244;28;20419;-23
2022/06/03 04:30:08;;;;;;;3.65;1.95;;;;;;;18.01;61.17;96596.34;10408597;28;20033;-24
2022/06/03 04:35:27;;;;;;;2.83;1.67;;;;;;;18.01;60.94;96605.66;10421268;28;20092;-24
2022/06/03 04:40:48;;;;;;;2.70;2.40;;;;;;;18.10;61.35;96605.66;10414075;28;20411;-24
2022/06/03 04:45:57;;;;;;;2.83;2.33;;;;;;;18.16;61.37;96613.25;10448436;28;20123;-24
2022/06/03 04:51:28;;;;;;;2.25;2.05;;;;;;;18.18;61.12;96609.03;10448175;28;20090;-23
2022/06/03 04:56:46;;;;;;;2.60;2.15;;;;;;;18.07;60.70;96601.44;10437436;28;20039;-22
2022/06/03 05:02:05;;;;;;;3.00;2.30;;;;;;;18.10;60.41;96620.84;10413215;28;20392;-22
2022/06/03 05:07:39;;;;;;;2.95;2.35;;;;;;;18.04;60.76;96630.97;10414502;28;20114;-24
2022/06/03 05:13:12;;;;;;;2.85;2.45;;;;;;;18.02;60.93;96622.53;10437810;28;20116;-22
2022/06/03 05:18:40;;;;;;;3.17;2.67;;;;;;;18.04;61.09;96623.38;10434033;28;20037;-24
2022/06/03 05:24:13;;;;;;;6.45;3.78;;;;;;;17.99;61.96;96607.34;10414038;28;20030;-23
2022/06/03 05:29:38;;;;;;;9.55;3.33;;;;;;;18.13;62.48;96600.56;10414597;28;20046;-23
2022/06/03 05:35:11;;;;;;;6.63;3.20;;;;;;;18.28;62.00;96615.78;10426159;28;20025;-23
2022/06/03 05:40:33;;;;;;;3.35;3.05;;;;;;;18.28;61.96;96595.50;10417290;28;20036;-25
2022/06/03 05:45:58;;;;;;;2.97;2.60;;;;;;;18.22;62.06;96605.63;10454139;28;20045;-23
2022/06/03 05:51:38;;;;;;;5.30;3.53;;;;;;;18.24;62.29;96598.91;10451493;28;20506;-24
2022/06/03 05:56:47;;;;;;;4.97;2.60;;;;;;;18.22;62.31;96606.50;10460477;28;20427;-22
2022/06/03 06:02:07;;;;;;;7.57;2.80;;;;;;;18.29;62.50;96604.78;10427142;28;20040;-22
2022/06/03 06:07:23;;;;;;;5.07;3.08;;;;;;;18.31;62.27;96595.50;10415655;28;20084;-24
2022/06/03 06:12:29;;;;;;;3.60;2.90;;;;;;;18.32;62.30;96598.06;10411543;28;20029;-25
2022/06/03 06:17:48;;;;;;;3.37;3.07;;;;;;;18.33;61.98;96598.91;10411857;28;20045;-24
2022/06/03 06:22:52;;;;;;;5.13;2.92;;;;;;;18.33;61.80;96596.38;10410968;28;20037;-25
2022/06/03 06:27:59;;;;;;;4.65;3.53;;;;;;;18.31;61.66;96596.38;10411263;28;20045;-23
2022/06/03 06:33:16;;;;;;;7.05;5.30;;;;;;;18.38;61.51;96594.66;10425468;28;20513;-23
2022/06/03 06:38:47;;;;;;;3.33;3.00;;;;;;;18.32;61.98;96597.22;10415614;28;20337;-23
2022/06/03 06:44:01;;;;;;;4.93;3.20;;;;;;;18.34;61.92;96605.66;10410328;28;20111;-23
2022/06/03 06:49:18;;;;;;;3.75;3.13;;;;;;;18.30;62.22;96601.44;10415117;28;20098;-24
2022/06/03 06:54:36;;;;;;;;;;;;;;;18.30;62.31;96594.69;10467384;28;20033;-23
2022/06/03 06:59:54;;;;;;;5.18;3.00;;;;;;;18.29;62.42;96597.19;10410345;28;19921;-23
2022/06/03 07:05:21;;;;;;;3.90;2.92;;;;;;;18.34;62.04;96576.09;10425028;28;20036;-24
2022/06/03 07:10:33;;;;;;;4.35;2.85;;;;;;;18.41;61.45;96544.81;10433724;28;20046;-24
2022/06/03 07:15:49;;;;;;;2.95;2.55;;;;;;;18.43;61.25;96527.06;10444952;28;20036;-24
2022/06/03 07:20:54;;;;;;;4.22;3.17;;;;;;;18.54;61.10;96510.13;10457012;28;20043;-23
2022/06/03 07:26:09;;;;;;;4.35;2.75;;;;;;;18.61;60.76;96488.97;10469188;28;20178;-23
2022/06/03 07:31:13;;;;;;;2.50;2.28;;;;;;;18.52;60.57;96478.88;10445064;28;20034;-22
2022/06/03 07:36:27;;;;;;;2.47;2.28;;;;;;;18.51;60.66;96467.06;10471596;28;20036;-23
2022/06/03 07:41:36;;;;;;;3.88;2.45;;;;;;;18.52;60.72;96484.81;10445615;28;20525;-23
2022/06/03 07:46:49;;;;;;;2.83;2.30;;;;;;;18.44;60.59;96462.84;10473944;28;20036;-24
2022/06/03 07:51:58;;;;;;;3.55;2.08;;;;;;;18.37;60.44;96441.78;10460368;28;20037;-24
2022/06/03 07:57:18;;;;;;;3.00;2.10;;;;;;;18.56;60.40;96455.19;10448934;28;20058;-23
2022/06/03 08:02:20;;;;;;;4.07;2.50;;;;;;;18.62;60.38;96450.94;10473301;28;20071;-23
2022/06/03 08:12:55;;;;;;;4.05;2.67;;;;;;;18.83;62.28;96460.16;10453090;28;20108;-23
2022/06/03 08:17:56;;;;;;;3.28;2.33;;;;;;;18.85;62.69;96459.25;10472729;28;20076;-23
2022/06/03 08:22:57;;;;;;;4.47;2.40;;;;;;;18.86;61.79;96457.56;10460456;28;20057;-23
2022/06/03 08:27:59;;;;;;;5.30;2.38;;;;;;;18.74;61.37;96452.59;10465416;28;20029;-26
2022/06/03 08:33:04;;;;;;;3.80;2.15;;;;;;;18.63;59.99;96451.78;10448599;28;20037;-24
2022/06/03 08:38:13;;;;;;;3.05;2.30;;;;;;;18.54;59.98;96441.69;10419682;28;20037;-22
2022/06/03 08:43:22;;;;;;;2.17;1.95;;;;;;;18.47;60.11;96453.56;10416228;28;20667;-23
2022/06/03 08:48:31;;;;;;;2.00;1.90;;;;;;;18.43;60.01;96443.44;10415555;28;20120;-24
2022/06/03 08:53:49;;;;;;;2.83;2.20;;;;;;;18.52;60.08;96451.00;10447176;28;20043;-24
2022/06/03 08:58:58;;;;;;;4.82;2.03;;;;;;;18.49;59.74;96464.53;10420873;28;20120;-24
2022/06/03 09:04:22;;;;;;;4.22;2.65;;;;;;;18.71;62.56;96460.19;10422017;28;20094;-24
2022/06/03 09:09:33;;;;;;;2.55;2.35;;;;;;;18.66;60.54;96467.81;10414506;28;20068;-24
2022/06/03 09:14:35;;;;;;;2.30;2.10;;;;;;;18.55;59.78;96466.19;10412383;28;20032;-22
2022/06/03 09:19:40;;;;;;;2.33;2.05;;;;;;;18.57;59.77;96479.72;10413740;28;20091;-24
2022/06/03 09:24:42;;;;;;;2.78;2.30;;;;;;;18.50;59.86;96524.50;10412115;28;20411;-23
2022/06/03 09:29:51;;;;;;;2.85;2.63;;;;;;;18.29;62.77;96569.31;10413963;28;20037;-23
2022/06/03 09:35:05;;;;;;;2.97;2.67;;;;;;;18.30;64.23;96612.44;10434107;28;20033;-23
2022/06/03 09:40:09;;;;;;;3.42;2.95;;;;;;;18.30;63.76;96622.56;10413013;28;20071;-22
2022/06/03 09:45:10;;;;;;;2.92;2.60;;;;;;;18.23;64.19;96645.31;10412140;28;20060;-24
2022/06/03 09:50:15;;;;;;;4.15;3.05;;;;;;;18.34;64.94;96663.97;10418340;28;20555;-23
2022/06/03 09:55:29;;;;;;;3.42;2.22;;;;;;;18.48;62.38;96657.19;10483660;28;20037;-22
2022/06/03 10:00:41;;;;;;;5.82;3.00;;;;;;;18.40;62.30;96651.28;10412518;28;20037;-24
2022/06/03 10:05:47;;;;;;;6.60;3.17;;;;;;;18.38;64.70;96650.44;10412289;28;20042;-23
2022/06/03 10:16:10;;;;;;;7.82;3.45;;;;;;;18.29;64.48;96632.66;10411484;28;20037;-22
2022/06/03 10:21:11;;;;;;;4.32;3.40;;;;;;;18.40;64.11;96615.81;10448944;28;20041;-24
2022/06/03 10:26:33;;;;;;;5.37;2.70;;;;;;;18.49;61.67;96586.19;10439500;28;20503;-23
2022/06/03 10:31:36;;;;;;;9.60;2.97;;;;;;;18.51;61.26;96573.53;10414345;28;20025;-23
2022/06/03 10:36:39;;;;;;;2.85;2.53;;;;;;;18.49;61.41;96576.06;10450985;28;20033;-22
2022/06/03 10:41:43;;;;;;;15.63;4.07;;;;;;;18.72;63.12;96568.38;10446298;28;20498;-25
2022/06/03 10:47:19;;;;;;;14.38;4.07;;;;;;;18.86;64.05;96566.66;10461190;28;20037;-24
2022/06/03 11:03:23;;;;;;;7.03;2.55;;;;;;;18.65;60.73;96589.53;10409763;28;20427;-23
2022/06/03 11:08:24;;;;;;;3.95;2.42;;;;;;;18.56;60.56;96602.22;10431126;28;20065;-23
2022/06/03 11:13:30;;;;;;;4.70;2.17;;;;;;;18.59;60.42;96627.59;10449058;28;20429;-23
2022/06/03 11:18:34;;;;;;;4.97;2.90;;;;;;;18.66;62.46;96629.28;10447219;28;20064;-24
2022/06/03 11:23:34;;;;;;;15.52;4.38;;;;;;;18.86;64.76;96592.88;10412655;28;20373;-24
2022/06/03 11:28:39;;;;;;;5.67;3.43;;;;;;;18.97;64.40;96569.97;10449427;28;20041;-24
2022/06/03 11:34:01;;;;;;;10.05;3.20;;;;;;;19.01;64.80;96567.41;10458835;28;20037;-23
2022/06/03 11:39:20;;;;;;;12.90;3.80;;;;;;;18.97;65.93;96544.59;10472390;28;20131;-23
2022/06/03 11:44:40;;;;;;;6.45;3.53;;;;;;;19.12;66.52;96552.16;10467526;28;20033;-23
2022/06/03 11:49:40;;;;;;;16.98;4.07;;;;;;;19.18;66.45;96559.75;10449726;28;20120;-22
2022/06/03 11:54:41;;;;;;;11.97;3.93;;;;;;;19.19;66.14;96547.06;10464430;28;20039;-23
2022/06/03 11:59:50;;;;;;;8.20;3.33;;;;;;;19.15;67.55;96564.81;10455538;28;20546;-22
2022/06/03 12:04:57;;;;;;;8.75;3.58;;;;;;;19.16;67.08;96577.50;10460944;28;20503;-25
2022/06/03 12:10:01;;;;;;;9.98;3.60;;;;;;;19.15;67.65;96569.88;10447961;28;20028;-23
2022/06/03 12:15:28;;;;;;;8.35;3.55;;;;;;;19.19;67.46;96576.69;10457566;28;20032;-23
2022/06/03 12:20:29;;;;;;;15.68;3.80;;;;;;;19.22;66.38;96566.50;10448532;28;20607;-22
2022/06/03 12:25:32;;;;;;;18.35;4.68;;;;;;;19.23;68.43;96573.25;10447089;28;20120;-24
2022/06/03 12:30:43;;;;;;;14.40;3.95;;;;;;;19.21;68.09;96568.22;10415164;28;20405;-24
2022/06/03 12:35:44;;;;;;;15.13;4.20;;;;;;;19.20;68.55;96576.69;10441365;28;20057;-22
2022/06/03 12:40:46;;;;;;;5.75;3.38;;;;;;;19.20;68.18;96573.28;10416046;28;20052;-23
2022/06/03 12:46:07;;;;;;;8.00;3.38;;;;;;;19.17;68.25;96561.41;10415438;28;20038;-24
2022/06/03 12:51:19;;;;;;;7.10;3.70;;;;;;;19.22;67.83;96580.06;10436137;28;20090;-24
2022/06/03 12:56:33;;;;;;;7.90;3.38;;;;;;;19.24;68.09;96569.91;10469683;28;20065;-22
2022/06/03 13:01:48;;;;;;;5.10;2.92;;;;;;;19.20;68.15;96564.00;10414744;28;20065;-23
2022/06/03 13:07:11;;;;;;;5.47;2.92;;;;;;;19.22;68.43;96561.44;10435704;28;20108;-27
2022/06/03 13:12:21;;;;;;;4.85;2.88;;;;;;;19.22;68.52;96558.88;10434556;28;20068;-22
2022/06/03 13:17:59;;;;;;;4.40;3.08;;;;;;;19.24;68.34;96549.59;10455371;28;20041;-24
2022/06/03 13:23:00;;;;;;;4.38;2.83;;;;;;;19.24;69.03;96550.41;10414872;28;20159;-24
2022/06/03 13:28:14;;;;;;;6.55;3.30;;;;;;;19.24;68.71;96539.44;10413358;28;20570;-23
2022/06/03 13:33:20;;;;;;;4.75;2.95;;;;;;;19.25;68.86;96530.97;10438608;28;20082;-22
2022/06/03 13:38:27;;;;;;;6.93;2.80;;;;;;;19.25;68.28;96516.56;10470644;28;20488;-23
2022/06/03 13:43:27;;;;;;;4.53;2.30;;;;;;;19.33;68.34;96529.22;10453873;28;20033;-23
2022/06/03 13:48:54;;;;;;;5.30;2.42;;;;;;;19.29;68.48;96523.31;10454419;28;20037;-24
2022/06/03 13:54:04;;;;;;;4.15;2.70;;;;;;;19.33;69.35;96519.06;10480647;28;20025;-23
2022/06/03 13:59:14;;;;;;;3.35;2.35;;;;;;;19.13;64.14;96503.94;10433170;28;20034;-22
2022/06/03 14:04:24;;;;;;;3.28;2.40;;;;;;;19.18;65.94;96514.06;10465985;28;20034;-23
2022/06/03 14:09:36;;;;;;;4.97;2.80;;;;;;;19.31;69.10;96514.00;10412062;28;20042;-22
2022/06/03 14:14:57;;;;;;;3.33;2.40;;;;;;;19.25;66.70;96510.66;10412123;28;20044;-32
2022/06/03 14:20:00;;;;;;;6.85;2.53;;;;;;;19.34;68.96;96506.34;10411694;28;20116;-22
2022/06/03 14:25:19;;;;;;;3.22;2.28;;;;;;;19.37;68.82;96496.19;10412970;28;20025;-23
2022/06/03 14:30:49;;;;;;;4.70;2.40;;;;;;;19.26;66.36;96495.41;10452070;28;20087;-23
2022/06/03 14:35:57;;;;;;;2.40;1.98;;;;;;;19.44;66.99;96487.66;10425343;28;20481;-22
2022/06/03 14:40:58;;;;;;;3.45;2.20;;;;;;;19.51;66.72;96485.94;10411328;28;20121;-23
2022/06/03 14:46:04;;;;;;;3.63;2.10;;;;;;;19.47;66.56;96482.56;10411065;28;20294;-24
2022/06/03 14:51:09;;;;;;;3.87;2.20;;;;;;;19.37;65.78;96485.19;10426840;28;20095;-23
2022/06/03 14:56:29;;;;;;;4.13;2.10;;;;;;;19.41;66.79;96481.78;10438020;28;20045;-22
2022/06/03 15:01:40;;;;;;;2.00;1.80;;;;;;;19.20;63.13;96492.94;10410699;28;20037;-24
2022/06/03 15:06:51;;;;;;;4.97;2.50;;;;;;;19.21;66.05;96496.28;10454486;28;20033;-22
2022/06/03 15:11:57;;;;;;;6.28;2.58;;;;;;;19.31;65.84;96482.69;10461185;28;20034;-22
2022/06/03 15:17:03;;;;;;;5.67;2.43;;;;;;;19.27;62.80;96488.66;10457836;28;20101;-23
2022/06/03 15:22:32;;;;;;;2.88;1.67;;;;;;;18.98;61.98;96493.00;10460059;28;20029;-22
2022/06/03 15:27:37;;;;;;;2.63;2.10;;;;;;;19.13;62.09;96485.31;10453132;28;20102;-24
2022/06/03 15:32:42;;;;;;;3.10;1.97;;;;;;;19.04;61.53;96475.22;10466676;28;20021;-23
2022/06/03 15:37:42;;;;;;;7.63;2.08;;;;;;;18.98;61.96;96476.09;10471721;28;20380;-22
2022/06/03 15:42:49;;;;;;;4.23;1.97;;;;;;;18.77;62.15;96467.78;10446379;28;20029;-22
2022/06/03 15:48:00;;;;;;;3.63;1.98;;;;;;;18.82;61.97;96469.44;10454473;28;20287;-23
2022/06/03 15:53:04;;;;;;;7.18;2.08;;;;;;;19.07;64.67;96477.72;10450688;28;20033;-24
2022/06/03 15:58:21;;;;;;;5.47;2.10;;;;;;;18.99;63.44;96471.88;10451814;28;20049;-23
2022/06/03 16:03:36;;;;;;;4.35;2.00;;;;;;;18.97;63.17;96464.28;10447195;28;20419;-23
2022/06/03 16:08:55;;;;;;;5.47;1.63;;;;;;;18.94;63.16;96458.38;10467975;28;20031;-22
2022/06/03 16:14:33;;;;;;;2.35;1.70;;;;;;;18.77;61.24;96461.00;10452138;28;20037;-23
2022/06/03 16:19:41;;;;;;;4.28;1.92;;;;;;;18.89;62.02;96470.22;10434585;28;20034;-23
2022/06/03 16:24:57;;;;;;;2.00;1.80;;;;;;;18.88;60.93;96471.94;10458332;28;20064;-22
2022/06/03 16:30:03;;;;;;;6.43;2.53;;;;;;;19.02;64.30;96476.94;10439748;28;20120;-23
2022/06/03 16:35:11;;;;;;;5.53;1.92;;;;;;;19.05;64.17;96475.22;10440992;28;20075;-24
2022/06/03 16:40:24;;;;;;;8.50;2.08;;;;;;;19.10;61.64;96477.72;10445740;28;20526;-27
2022/06/03 16:50:52;;;;;;;7.40;2.65;;;;;;;19.00;61.75;96483.72;10440784;28;20044;-25
2022/06/03 16:55:57;;;;;;;4.47;1.58;;;;;;;18.99;61.00;96479.50;10450161;28;20062;-24
2022/06/03 17:01:04;;;;;;;10.02;2.00;;;;;;;18.96;61.29;96476.97;10449931;28;20029;-22
2022/06/03 17:06:10;;;;;;;6.38;2.00;;;;;;;19.08;62.31;96482.81;10442685;28;20037;-23
2022/06/03 17:11:24;;;;;;;5.68;1.33;;;;;;;19.42;62.76;96478.41;10452057;28;20402;-22
2022/06/03 17:16:34;;;;;;;8.10;2.38;;;;;;;19.17;60.74;96481.91;10480693;28;20170;-23
2022/06/03 17:21:57;;;;;;;7.25;1.70;;;;;;;19.02;60.70;96489.63;10470367;28;20044;-23
2022/06/03 17:27:27;;;;;;;3.47;1.73;;;;;;;18.97;60.50;96491.31;10443649;28;20078;-24
2022/06/03 17:32:48;;;;;;;2.55;1.50;;;;;;;18.92;60.47;96465.97;10447830;28;20032;-22
2022/06/03 17:38:16;;;;;;;5.32;1.40;;;;;;;18.91;60.59;96479.53;10441104;28;20072;-21
2022/06/03 17:43:25;;;;;;;3.15;1.63;;;;;;;18.89;60.58;96476.16;10446956;28;20105;-21
2022/06/03 17:48:56;;;;;;;3.83;1.83;;;;;;;18.90;60.37;96482.06;10451964;28;20502;-24
2022/06/03 18:00:04;;;;;;;2.60;1.40;;;;;;;19.15;61.00;96488.69;10461853;28;20120;-23
2022/06/03 18:05:22;;;;;;;4.30;1.80;;;;;;;19.25;60.36;96480.22;10436838;28;20029;-21
2022/06/03 18:10:31;;;;;;;3.40;1.67;;;;;;;19.10;60.96;96488.72;10451971;28;20091;-23
2022/06/03 18:15:32;;;;;;;4.57;1.88;;;;;;;19.00;61.09;96482.00;10452839;28;20033;-22
2022/06/03 18:20:51;;;;;;;2.42;1.75;;;;;;;18.96;60.22;96492.19;10427362;28;20107;-24
2022/06/03 18:26:03;;;;;;;4.13;1.63;;;;;;;18.92;60.20;96485.47;10411343;28;20086;-21
2022/06/03 18:31:23;;;;;;;2.42;1.25;;;;;;;18.90;60.03;96482.06;10432300;28;20037;-23
2022/06/03 18:36:36;;;;;;;3.22;1.60;;;;;;;18.91;60.19;96482.06;10411141;28;20080;-23
2022/06/03 18:47:51;;;;;;;6.30;2.03;;;;;;;18.99;61.44;96482.88;10435935;28;20124;-22
2022/06/03 18:53:06;;;;;;;6.60;2.08;;;;;;;19.21;61.47;96494.63;10431115;28;20037;-24
2022/06/03 18:58:25;;;;;;;2.25;1.48;;;;;;;19.02;59.78;96482.00;10450751;28;20031;-22
2022/06/03 19:03:34;;;;;;;10.40;2.50;;;;;;;18.99;60.09;96503.16;10434551;28;20616;-23
2022/06/03 19:08:57;;;;;;;4.63;1.63;;;;;;;18.93;60.31;96502.34;10452947;28;20064;-24
2022/06/03 19:14:28;;;;;;;2.55;1.33;;;;;;;18.88;60.77;96519.28;10444301;28;20033;-22
2022/06/03 19:19:47;;;;;;;3.55;1.63;;;;;;;18.92;60.45;96516.72;10441045;28;20029;-23
2022/06/03 19:24:47;;;;;;;6.70;1.50;;;;;;;19.05;61.52;96517.50;10445823;28;20040;-24
2022/06/03 19:29:57;;;;;;;3.75;1.63;;;;;;;19.26;61.60;96519.97;10444027;28;20134;-24
2022/06/03 19:35:00;;;;;;;3.10;1.40;;;;;;;19.24;59.46;96529.28;10453102;28;20060;-25
2022/06/03 19:40:07;;;;;;;4.32;1.40;;;;;;;19.06;59.81;96534.41;10440246;28;20047;-23
2022/06/03 19:45:35;;;;;;;2.85;1.42;;;;;;;18.99;59.85;96548.81;10436835;28;20053;-23
2022/06/03 19:51:04;;;;;;;8.65;2.33;;;;;;;19.06;62.74;96562.31;10448444;28;20060;-22
2022/06/03 19:56:32;;;;;;;4.97;1.98;;;;;;;18.99;60.15;96560.69;10466407;28;20120;-23
2022/06/03 20:01:32;;;;;;;5.85;1.20;;;;;;;18.95;59.90;96559.84;10408645;28;20049;-22
2022/06/03 20:06:42;;;;;;;3.43;1.60;;;;;;;18.94;60.02;96564.94;10407583;28;20064;-22
2022/06/03 20:17:25;;;;;;;6.13;1.73;;;;;;;19.30;61.82;96564.75;10406621;28;20045;-23
2022/06/03 20:22:52;;;;;;;2.88;2.08;;;;;;;19.23;60.08;96563.09;10453604;28;20037;-23
2022/06/03 20:28:31;;;;;;;7.97;1.77;;;;;;;19.08;59.57;96563.19;10420314;28;20501;-22
2022/06/03 20:34:03;;;;;;;3.97;1.60;;;;;;;19.03;59.78;96575.03;10434236;28;20052;-22
2022/06/03 20:39:23;;;;;;;2.38;1.40;;;;;;;19.02;59.72;96578.41;10457358;28;20033;-23
2022/06/03 20:44:41;;;;;;;2.08;1.38;;;;;;;19.02;59.66;96573.34;10456440;28;20036;-23
2022/06/03 20:49:57;;;;;;;5.50;1.92;;;;;;;19.08;61.14;96583.47;10452573;28;20685;-23
2022/06/03 20:55:12;;;;;;;8.88;2.30;;;;;;;19.12;60.80;96585.13;10413504;28;20053;-23
2022/06/03 21:00:23;;;;;;;9.32;2.17;;;;;;;19.04;60.01;96586.88;10414869;28;20442;-24
2022/06/03 21:16:03;;;;;;;3.17;1.33;;;;;;;19.12;59.21;96591.06;10414484;28;20061;-22
2022/06/03 21:21:45;;;;;;;1.65;1.10;;;;;;;19.05;59.50;96606.31;10414020;28;20079;-23
2022/06/03 21:26:45;;;;;;;2.47;1.50;;;;;;;19.00;59.44;96605.50;10451040;28;20051;-23
2022/06/03 21:32:34;;;;;;;2.93;1.37;;;;;;;18.96;59.67;96599.59;10483395;28;20052;-22
2022/06/03 21:38:02;;;;;;;3.58;1.42;;;;;;;18.95;59.65;96604.66;10451362;28;20067;-22
2022/06/03 21:43:14;;;;;;;2.72;1.13;;;;;;;18.96;59.68;96603.81;10438760;28;20056;-23
2022/06/03 21:48:20;;;;;;;2.65;1.35;;;;;;;18.94;59.66;96605.50;10445181;28;20045;-23
2022/06/03 21:53:52;;;;;;;2.92;2.30;;;;;;;18.99;61.68;96598.75;10490325;28;20036;-23
2022/06/03 21:59:10;;;;;;;4.28;1.63;;;;;;;19.26;61.14;96616.41;10425875;28;20041;-22
2022/06/03 22:04:12;;;;;;;2.80;1.20;;;;;;;19.29;59.21;96624.88;10413099;28;20083;-23
2022/06/03 22:09:12;;;;;;;1.80;1.20;;;;;;;19.11;59.12;96609.69;10412691;28;20397;-23
2022/06/03 22:14:13;;;;;;;1.70;1.20;;;;;;;19.03;59.36;96629.16;10412064;28;20037;-22
2022/06/03 22:19:14;;;;;;;2.17;1.30;;;;;;;18.99;59.41;96621.56;10424247;28;20657;-22
2022/06/03 22:24:14;;;;;;;1.38;1.27;;;;;;;18.97;59.54;96615.63;10473947;28;20406;-23
2022/06/03 22:29:58;;;;;;;1.30;1.10;;;;;;;18.96;59.61;96621.56;10418093;28;20029;-22
2022/06/03 22:35:38;;;;;;;1.65;1.13;;;;;;;18.95;59.44;96607.19;10425279;28;20558;-23
2022/06/03 22:41:05;;;;;;;2.03;1.30;;;;;;;18.92;59.46;96602.97;10418304;28;20041;-22
2022/06/03 22:46:05;;;;;;;3.33;2.20;;;;;;;18.91;59.57;96605.53;10442726;28;20091;-25
2022/06/03 22:51:06;;;;;;;1.35;1.25;;;;;;;19.18;60.40;96613.03;10451001;28;20348;-23
2022/06/03 22:56:08;;;;;;;2.05;1.45;;;;;;;19.32;60.32;96603.66;10467026;28;20030;-23
2022/06/03 23:01:10;;;;;;;2.75;1.30;;;;;;;19.17;59.09;96616.41;10409980;28;20103;-22
2022/06/03 23:06:11;;;;;;;1.30;1.20;;;;;;;18.98;59.02;96614.78;10440397;28;20033;-23
2022/06/03 23:11:13;;;;;;;2.28;1.38;;;;;;;19.04;59.09;96622.38;10438240;28;20032;-23
2022/06/03 23:16:14;;;;;;;2.05;1.60;;;;;;;19.00;59.35;96610.56;10409592;28;20120;-23
2022/06/03 23:21:17;;;;;;;2.35;1.30;;;;;;;18.96;59.29;96602.13;10440813;28;20467;-22
2022/06/03 23:26:24;;;;;;;1.10;1.00;;;;;;;18.94;59.43;96610.59;10437155;28;20026;-22
2022/06/03 23:31:26;;;;;;;2.45;1.30;;;;;;;18.93;59.18;96606.38;10423915;28;20036;-23
2022/06/03 23:36:28;;;;;;;1.92;1.30;;;;;;;18.90;59.17;96598.75;10430318;28;20078;-23
2022/06/03 23:46:50;;;;;;;2.05;1.52;;;;;;;19.22;60.45;96602.91;10408582;28;20041;-23
2022/06/03 23:51:52;;;;;;;1.38;1.27;;;;;;;19.30;59.27;96610.47;10448244;28;20406;-23
2022/06/03 23:56:52;;;;;;;2.35;0.90;;;;;;;19.17;58.73;96612.19;10454699;28;20045;-23
